createdAt,value
2023-05-09T00:01:16.195Z,17.50
2023-05-09T00:03:43.590Z,17.40
2023-05-09T00:06:11.754Z,17.30
2023-05-09T00:08:38.982Z,17.30
2023-05-09T00:11:06.167Z,17.30
2023-05-09T00:13:34.821Z,17.30
2023-05-09T00:16:02.014Z,17.30
2023-05-09T00:18:31.254Z,17.30
2023-05-09T00:20:58.518Z,17.20
2023-05-09T00:23:25.822Z,17.20
2023-05-09T00:25:53.140Z,17.30
2023-05-09T00:28:20.610Z,17.30
2023-05-09T00:30:47.672Z,17.40
2023-05-09T00:33:14.790Z,17.20
2023-05-09T00:35:41.933Z,17.20
2023-05-09T00:38:09.193Z,17.20
2023-05-09T00:40:36.609Z,17.30
2023-05-09T00:43:04.971Z,17.20
2023-05-09T00:45:32.106Z,17.30
2023-05-09T00:47:59.334Z,17.20
2023-05-09T00:50:26.599Z,17.20
2023-05-09T00:52:54.076Z,17.30
2023-05-09T00:55:21.377Z,17.30
2023-05-09T00:57:48.751Z,17.20
2023-05-09T01:00:16.840Z,17.30
2023-05-09T01:02:46.842Z,17.30
2023-05-09T01:05:15.447Z,17.30
2023-05-09T01:08:08.102Z,17.40
2023-05-09T01:10:58.590Z,17.30
2023-05-09T01:13:38.214Z,17.20
2023-05-09T01:16:19.630Z,17.30
2023-05-09T01:18:55.252Z,17.30
2023-05-09T01:21:30.619Z,17.20
2023-05-09T01:24:01.561Z,17.20
2023-05-09T01:26:34.538Z,17.30
2023-05-09T01:29:43.229Z,17.30
2023-05-09T01:32:17.609Z,17.30
2023-05-09T01:34:46.607Z,17.40
2023-05-09T01:37:14.704Z,17.30
2023-05-09T01:39:49.413Z,17.30
2023-05-09T01:42:18.893Z,17.30
2023-05-09T01:44:47.941Z,17.30
2023-05-09T01:47:16.769Z,17.30
2023-05-09T01:49:44.873Z,17.20
2023-05-09T01:52:16.943Z,17.20
2023-05-09T01:54:45.844Z,17.20
2023-05-09T01:57:13.116Z,17.40
2023-05-09T01:59:43.139Z,17.50
2023-05-09T02:02:10.857Z,17.40
2023-05-09T02:04:39.298Z,17.50
2023-05-09T02:07:08.265Z,17.60
2023-05-09T02:09:36.063Z,17.70
2023-05-09T02:12:04.806Z,17.40
2023-05-09T02:14:32.169Z,17.50
2023-05-09T02:17:06.296Z,17.50
2023-05-09T02:19:35.815Z,17.30
2023-05-09T02:22:05.061Z,17.20
2023-05-09T02:24:34.662Z,17.10
2023-05-09T02:27:03.674Z,17.20
2023-05-09T02:29:41.903Z,17.10
2023-05-09T02:32:16.144Z,17.10
2023-05-09T02:34:44.762Z,17.00
2023-05-09T02:37:12.922Z,17.10
2023-05-09T02:39:40.736Z,17.20
2023-05-09T02:42:11.249Z,17.20
2023-05-09T02:44:41.259Z,17.10
2023-05-09T02:47:08.550Z,17.10
2023-05-09T02:49:35.749Z,17.20
2023-05-09T02:52:03.026Z,17.00
2023-05-09T02:54:30.188Z,16.90
2023-05-09T02:56:57.332Z,16.80
2023-05-09T02:59:24.661Z,16.80
2023-05-09T03:01:52.163Z,16.80
2023-05-09T03:04:19.930Z,16.70
2023-05-09T03:06:47.177Z,16.60
2023-05-09T03:09:14.322Z,16.50
2023-05-09T03:11:41.457Z,16.60
2023-05-09T03:14:08.852Z,16.60
2023-05-09T03:16:36.063Z,16.60
2023-05-09T03:19:03.722Z,16.70
2023-05-09T03:21:32.203Z,16.80
2023-05-09T03:23:59.625Z,16.60
2023-05-09T03:26:26.762Z,16.50
2023-05-09T03:28:54.001Z,16.50
2023-05-09T03:31:21.344Z,16.40
2023-05-09T03:33:48.465Z,16.50
2023-05-09T03:36:15.783Z,16.50
2023-05-09T03:38:42.993Z,16.50
2023-05-09T03:41:10.650Z,16.50
2023-05-09T03:43:37.737Z,16.40
2023-05-09T03:46:04.994Z,16.40
2023-05-09T03:48:32.056Z,16.40
2023-05-09T03:50:59.262Z,16.30
2023-05-09T03:53:26.362Z,16.30
2023-05-09T03:55:53.464Z,16.30
2023-05-09T03:58:20.748Z,16.30
2023-05-09T04:00:47.914Z,16.30
2023-05-09T04:03:15.141Z,16.30
2023-05-09T04:05:42.521Z,16.40
2023-05-09T04:08:09.799Z,16.50
2023-05-09T04:10:36.917Z,16.40
2023-05-09T04:13:04.143Z,16.30
2023-05-09T04:15:31.361Z,16.30
2023-05-09T04:17:58.563Z,16.30
2023-05-09T04:20:25.986Z,16.30
2023-05-09T04:22:53.256Z,16.30
2023-05-09T04:25:20.921Z,16.30
2023-05-09T04:27:48.042Z,16.30
2023-05-09T04:30:15.899Z,16.40
2023-05-09T04:32:46.294Z,16.40
2023-05-09T04:35:14.221Z,16.40
2023-05-09T04:37:42.062Z,16.40
2023-05-09T04:40:10.526Z,16.60
2023-05-09T04:42:37.791Z,16.60
2023-05-09T04:45:05.779Z,16.60
2023-05-09T04:47:33.097Z,16.60
2023-05-09T04:50:00.255Z,16.60
2023-05-09T04:52:27.474Z,16.70
2023-05-09T04:54:54.675Z,16.80
2023-05-09T04:57:22.152Z,16.70
2023-05-09T04:59:50.247Z,16.70
2023-05-09T05:02:17.319Z,16.70
2023-05-09T05:04:44.366Z,16.80
2023-05-09T05:07:11.482Z,17.10
2023-05-09T05:09:38.489Z,17.30
2023-05-09T05:12:09.297Z,17.50
2023-05-09T05:14:36.937Z,17.20
2023-05-09T05:17:04.049Z,17.20
2023-05-09T05:19:31.177Z,17.40
2023-05-09T05:21:58.202Z,17.50
2023-05-09T05:24:25.272Z,17.70
2023-05-09T05:26:52.303Z,17.90
2023-05-09T05:29:20.415Z,18.00
2023-05-09T05:31:47.485Z,18.00
2023-05-09T05:34:16.373Z,17.90
2023-05-09T05:36:43.388Z,17.90
2023-05-09T05:39:10.532Z,18.00
2023-05-09T05:41:37.694Z,18.20
2023-05-09T05:44:05.097Z,18.20
2023-05-09T05:46:32.078Z,18.30
2023-05-09T05:48:59.036Z,18.10
2023-05-09T05:51:26.031Z,18.20
2023-05-09T05:53:58.119Z,18.20
2023-05-09T05:56:25.083Z,18.40
2023-05-09T05:58:52.089Z,18.60
2023-05-09T06:01:19.057Z,18.70
2023-05-09T06:03:46.352Z,18.80
2023-05-09T06:06:13.472Z,18.90
2023-05-09T06:08:40.480Z,18.90
2023-05-09T06:11:07.734Z,19.00
2023-05-09T06:13:34.752Z,19.00
2023-05-09T06:16:15.131Z,18.90
2023-05-09T06:18:46.119Z,19.00
2023-05-09T06:21:13.104Z,19.00
2023-05-09T06:23:47.329Z,18.90
2023-05-09T06:26:24.565Z,19.00
2023-05-09T06:28:51.550Z,18.90
2023-05-09T06:31:18.537Z,19.10
2023-05-09T06:33:45.508Z,19.40
2023-05-09T06:36:12.413Z,19.70
2023-05-09T06:38:39.409Z,20.40
2023-05-09T06:41:06.359Z,21.10
2023-05-09T06:43:33.408Z,21.60
2023-05-09T06:46:00.444Z,21.60
2023-05-09T06:48:27.434Z,21.40
2023-05-09T06:50:54.375Z,21.40
2023-05-09T06:53:21.799Z,21.60
2023-05-09T06:55:48.860Z,21.60
2023-05-09T06:58:16.012Z,21.60
2023-05-09T07:00:43.074Z,21.60
2023-05-09T07:03:10.674Z,21.80
2023-05-09T07:05:37.650Z,21.60
2023-05-09T07:08:04.929Z,21.70
2023-05-09T07:10:32.262Z,21.60
2023-05-09T07:12:59.340Z,21.40
2023-05-09T07:15:37.192Z,21.60
2023-05-09T07:18:07.225Z,21.70
2023-05-09T07:20:34.208Z,21.80
2023-05-09T07:23:03.521Z,21.70
2023-05-09T07:25:30.798Z,21.70
2023-05-09T07:27:58.195Z,21.50
2023-05-09T07:30:25.503Z,21.30
2023-05-09T07:32:52.784Z,21.20
2023-05-09T07:35:20.524Z,21.10
2023-05-09T07:37:47.503Z,21.50
2023-05-09T07:40:15.000Z,21.60
2023-05-09T07:42:46.177Z,21.40
2023-05-09T07:45:13.348Z,21.30
2023-05-09T07:47:40.556Z,21.30
2023-05-09T07:50:08.137Z,21.60
2023-05-09T07:52:35.089Z,21.60
2023-05-09T07:55:02.154Z,21.80
2023-05-09T07:57:29.109Z,22.70
2023-05-09T07:59:56.287Z,22.80
2023-05-09T08:02:23.261Z,22.70
2023-05-09T08:04:50.294Z,22.30
2023-05-09T08:07:17.313Z,22.80
2023-05-09T08:09:44.317Z,23.30
2023-05-09T08:12:11.265Z,23.40
2023-05-09T08:14:38.338Z,24.10
2023-05-09T08:17:05.436Z,24.70
2023-05-09T08:19:32.612Z,24.70
2023-05-09T08:22:00.694Z,24.40
2023-05-09T08:24:27.667Z,24.60
2023-05-09T08:26:54.616Z,24.80
2023-05-09T08:29:21.683Z,24.80
2023-05-09T08:31:48.764Z,25.20
2023-05-09T08:34:16.128Z,25.10
2023-05-09T08:36:45.596Z,24.80
2023-05-09T08:39:12.576Z,24.90
2023-05-09T08:41:40.096Z,25.40
2023-05-09T08:44:07.368Z,25.40
2023-05-09T08:46:37.724Z,25.00
2023-05-09T08:49:07.317Z,24.70
2023-05-09T08:51:35.956Z,24.50
2023-05-09T08:54:03.474Z,24.80
2023-05-09T08:56:32.248Z,25.10
2023-05-09T08:58:59.317Z,24.50
2023-05-09T09:01:27.705Z,24.00
2023-05-09T09:03:54.976Z,24.10
2023-05-09T09:06:22.081Z,23.80
2023-05-09T09:08:49.288Z,23.40
2023-05-09T09:11:17.320Z,23.50
2023-05-09T09:13:46.624Z,23.50
2023-05-09T09:16:22.661Z,23.30
2023-05-09T09:18:53.572Z,23.30
2023-05-09T09:21:21.242Z,23.20
2023-05-09T09:23:49.670Z,23.10
2023-05-09T09:26:16.687Z,23.30
2023-05-09T09:28:43.675Z,23.00
2023-05-09T09:31:24.031Z,23.10
2023-05-09T09:33:51.792Z,23.30
2023-05-09T09:36:36.770Z,23.20
2023-05-09T09:39:05.537Z,23.40
2023-05-09T09:41:34.525Z,23.50
2023-05-09T09:44:11.560Z,23.20
2023-05-09T09:46:43.316Z,23.30
2023-05-09T09:49:12.492Z,23.30
2023-05-09T09:51:40.437Z,23.30
2023-05-09T09:54:08.972Z,23.50
2023-05-09T09:56:39.613Z,23.40
2023-05-09T09:59:12.335Z,23.30
2023-05-09T10:02:08.665Z,23.30
2023-05-09T10:04:37.761Z,23.10
2023-05-09T10:07:07.541Z,22.90
2023-05-09T10:09:35.425Z,23.10
2023-05-09T10:12:06.569Z,23.00
2023-05-09T10:14:36.378Z,23.20
2023-05-09T10:17:05.746Z,23.30
2023-05-09T10:19:33.520Z,23.10
2023-05-09T10:22:08.188Z,23.20
2023-05-09T10:24:35.486Z,23.20
2023-05-09T10:27:04.669Z,23.30
2023-05-09T10:29:36.732Z,23.20
2023-05-09T10:32:16.881Z,23.20
2023-05-09T10:34:49.349Z,23.10
2023-05-09T10:37:17.277Z,22.80
2023-05-09T10:39:44.379Z,22.70
2023-05-09T10:42:13.997Z,22.70
2023-05-09T10:44:41.400Z,23.10
2023-05-09T10:47:09.005Z,23.10
2023-05-09T10:49:37.246Z,22.90
2023-05-09T10:52:04.500Z,22.70
2023-05-09T10:54:34.459Z,22.80
2023-05-09T10:57:01.649Z,22.90
2023-05-09T10:59:39.145Z,23.00
2023-05-09T11:02:11.632Z,22.70
2023-05-09T11:04:39.811Z,22.70
2023-05-09T11:07:33.097Z,22.70
2023-05-09T11:10:18.214Z,22.70
2023-05-09T11:12:59.338Z,22.50
2023-05-09T11:15:30.014Z,22.60
2023-05-09T11:18:07.957Z,22.50
2023-05-09T11:20:36.553Z,22.40
2023-05-09T11:23:08.628Z,22.60
2023-05-09T11:25:36.150Z,22.60
2023-05-09T11:28:03.189Z,22.60
2023-05-09T11:30:43.760Z,22.40
2023-05-09T11:33:40.932Z,22.40
2023-05-09T11:36:20.576Z,22.40
2023-05-09T11:38:48.003Z,22.70
2023-05-09T11:41:15.631Z,22.70
2023-05-09T11:43:44.933Z,22.80
2023-05-09T11:46:12.728Z,23.00
2023-05-09T11:48:42.251Z,23.10
2023-05-09T11:51:19.457Z,23.00
2023-05-09T11:53:50.774Z,23.00
2023-05-09T11:56:17.994Z,23.00
2023-05-09T11:58:46.895Z,23.00
2023-05-09T12:01:14.028Z,23.00
2023-05-09T12:03:47.480Z,23.00
2023-05-09T12:06:17.394Z,23.20
2023-05-09T12:08:46.239Z,23.10
2023-05-09T12:11:14.971Z,23.00
2023-05-09T12:13:48.955Z,22.80
2023-05-09T12:16:17.776Z,22.80
2023-05-09T12:18:52.700Z,22.90
2023-05-09T12:21:20.616Z,22.90
2023-05-09T12:23:50.675Z,23.00
2023-05-09T12:26:18.384Z,22.70
2023-05-09T12:28:45.789Z,22.80
2023-05-09T12:31:13.154Z,22.80
2023-05-09T12:33:40.687Z,22.90
2023-05-09T12:36:11.036Z,22.80
2023-05-09T12:38:38.838Z,22.90
2023-05-09T12:41:12.958Z,22.90
2023-05-09T12:43:50.284Z,22.80
2023-05-09T12:46:21.513Z,22.60
2023-05-09T12:48:49.437Z,22.70
2023-05-09T12:51:21.069Z,22.70
2023-05-09T12:53:48.665Z,22.80
2023-05-09T12:56:18.393Z,22.80
2023-05-09T12:58:55.601Z,22.70
2023-05-09T13:01:29.614Z,22.60
2023-05-09T13:04:05.812Z,22.50
2023-05-09T13:06:33.108Z,22.50
2023-05-09T13:09:06.236Z,22.50
2023-05-09T13:11:33.616Z,22.60
2023-05-09T13:14:02.353Z,22.30
2023-05-09T13:16:29.376Z,22.30
2023-05-09T13:18:56.416Z,22.30
2023-05-09T13:21:23.362Z,22.30
2023-05-09T13:23:51.256Z,22.30
2023-05-09T13:26:18.423Z,22.20
2023-05-09T13:28:45.364Z,22.20
2023-05-09T13:31:12.363Z,22.20
2023-05-09T13:33:39.494Z,22.00
2023-05-09T13:36:07.212Z,22.00
2023-05-09T13:38:38.669Z,22.00
2023-05-09T13:41:06.067Z,21.90
2023-05-09T13:43:33.100Z,21.90
2023-05-09T13:46:00.100Z,21.70
2023-05-09T13:48:27.091Z,21.80
2023-05-09T13:50:54.205Z,21.80
2023-05-09T13:53:21.300Z,21.90
2023-05-09T13:55:48.469Z,21.90
2023-05-09T13:58:15.453Z,21.80
2023-05-09T14:00:42.457Z,21.30
2023-05-09T14:03:09.422Z,21.20
2023-05-09T14:05:36.577Z,21.20
2023-05-09T14:08:03.685Z,21.40
2023-05-09T14:10:30.620Z,21.70
2023-05-09T14:12:57.766Z,21.80
2023-05-09T14:15:24.816Z,21.90
2023-05-09T14:17:51.862Z,22.00
2023-05-09T14:20:18.834Z,22.00
2023-05-09T14:22:46.566Z,22.00
2023-05-09T14:25:13.703Z,21.90
2023-05-09T14:27:40.679Z,21.80
2023-05-09T14:30:08.852Z,21.70
2023-05-09T14:32:37.640Z,21.60
2023-05-09T14:35:05.008Z,21.60
2023-05-09T14:37:33.027Z,21.60
2023-05-09T14:40:05.365Z,21.60
2023-05-09T14:42:33.033Z,21.50
2023-05-09T14:45:00.002Z,21.60
2023-05-09T14:47:27.155Z,21.50
2023-05-09T14:49:54.236Z,21.60
2023-05-09T14:52:21.214Z,21.60
2023-05-09T14:54:48.165Z,21.60
2023-05-09T14:57:15.262Z,21.60
2023-05-09T14:59:42.384Z,21.60
2023-05-09T15:02:09.472Z,21.50
2023-05-09T15:04:36.522Z,21.60
2023-05-09T15:07:03.488Z,21.70
2023-05-09T15:09:30.432Z,21.60
2023-05-09T15:11:57.486Z,21.60
2023-05-09T15:14:24.758Z,21.60
2023-05-09T15:16:52.366Z,21.40
2023-05-09T15:19:19.723Z,21.30
2023-05-09T15:21:46.699Z,21.30
2023-05-09T15:24:13.728Z,21.30
2023-05-09T15:26:40.800Z,21.30
2023-05-09T15:29:07.784Z,21.30
2023-05-09T15:31:36.395Z,21.30
2023-05-09T15:34:03.705Z,21.20
2023-05-09T15:36:31.054Z,21.20
2023-05-09T15:38:58.434Z,21.00
2023-05-09T15:41:25.471Z,21.10
2023-05-09T15:43:53.049Z,21.10
2023-05-09T15:46:20.276Z,21.00
2023-05-09T15:48:47.629Z,21.10
2023-05-09T15:51:14.578Z,21.00
2023-05-09T15:53:41.909Z,21.00
2023-05-09T15:56:09.248Z,21.00
2023-05-09T15:58:36.856Z,21.00
2023-05-09T16:01:06.239Z,20.90
2023-05-09T16:03:33.789Z,20.90
2023-05-09T16:06:01.352Z,20.90
2023-05-09T16:08:28.338Z,20.90
2023-05-09T16:10:55.338Z,20.80
2023-05-09T16:13:22.536Z,20.80
2023-05-09T16:15:50.935Z,20.90
2023-05-09T16:18:18.095Z,20.80
2023-05-09T16:20:45.099Z,20.80
2023-05-09T16:23:12.264Z,20.90
2023-05-09T16:25:39.241Z,20.90
2023-05-09T16:28:07.299Z,20.60
2023-05-09T16:30:34.570Z,20.50
2023-05-09T16:33:01.847Z,20.40
2023-05-09T16:35:29.244Z,20.30
2023-05-09T16:37:56.165Z,20.40
2023-05-09T16:40:23.313Z,20.60
2023-05-09T16:42:50.261Z,20.60
2023-05-09T16:45:17.393Z,20.70
2023-05-09T16:47:44.494Z,20.60
2023-05-09T16:50:11.620Z,20.60
2023-05-09T16:52:38.584Z,20.70
2023-05-09T16:55:06.216Z,20.70
2023-05-09T16:57:33.600Z,20.60
2023-05-09T17:00:00.780Z,20.70
2023-05-09T17:02:27.888Z,20.70
2023-05-09T17:04:55.020Z,20.70
2023-05-09T17:07:22.352Z,20.80
2023-05-09T17:09:49.802Z,20.70
2023-05-09T17:12:18.409Z,20.70
2023-05-09T17:14:47.049Z,20.70
2023-05-09T17:17:14.830Z,20.60
2023-05-09T17:19:43.484Z,20.60
2023-05-09T17:22:10.631Z,20.60
2023-05-09T17:24:37.952Z,20.60
2023-05-09T17:27:05.371Z,20.50
2023-05-09T17:29:32.802Z,20.40
2023-05-09T17:32:01.082Z,20.20
2023-05-09T17:34:28.740Z,20.10
2023-05-09T17:36:56.388Z,19.90
2023-05-09T17:39:23.911Z,20.00
2023-05-09T17:41:50.982Z,20.00
2023-05-09T17:44:18.021Z,20.10
2023-05-09T17:46:45.084Z,20.20
2023-05-09T17:49:14.113Z,20.30
2023-05-09T17:51:41.809Z,20.20
2023-05-09T17:54:08.894Z,20.00
2023-05-09T17:56:36.444Z,20.00
2023-05-09T17:59:03.420Z,20.20
2023-05-09T18:01:30.500Z,20.20
2023-05-09T18:03:57.965Z,20.30
2023-05-09T18:06:28.764Z,20.10
2023-05-09T18:08:55.823Z,20.10
2023-05-09T18:11:25.463Z,20.10
2023-05-09T18:13:52.760Z,20.10
2023-05-09T18:16:19.914Z,20.10
2023-05-09T18:18:49.235Z,20.10
2023-05-09T18:21:16.331Z,20.10
2023-05-09T18:23:45.806Z,19.90
2023-05-09T18:26:12.856Z,20.00
2023-05-09T18:28:42.814Z,19.90
2023-05-09T18:31:11.990Z,20.00
2023-05-09T18:33:42.132Z,20.00
2023-05-09T18:36:10.957Z,19.90
2023-05-09T18:38:39.048Z,19.90
2023-05-09T18:41:10.841Z,19.80
2023-05-09T18:43:46.150Z,19.80
2023-05-09T18:46:18.706Z,19.90
2023-05-09T18:48:47.221Z,19.90
2023-05-09T18:51:18.114Z,19.90
2023-05-09T18:53:48.129Z,19.90
2023-05-09T18:56:16.490Z,19.90
2023-05-09T18:58:43.660Z,19.80
2023-05-09T19:01:11.761Z,19.70
2023-05-09T19:03:45.899Z,19.60
2023-05-09T19:06:14.099Z,19.60
2023-05-09T19:08:42.784Z,19.60
2023-05-09T19:11:11.665Z,19.60
2023-05-09T19:13:40.861Z,19.60
2023-05-09T19:16:08.913Z,19.80
2023-05-09T19:18:36.737Z,19.70
2023-05-09T19:21:04.105Z,19.70
2023-05-09T19:23:31.289Z,19.70
2023-05-09T19:25:58.342Z,19.60
2023-05-09T19:28:26.165Z,19.40
2023-05-09T19:30:53.351Z,19.20
2023-05-09T19:33:20.822Z,19.40
2023-05-09T19:35:48.106Z,19.50
2023-05-09T19:38:18.222Z,19.60
2023-05-09T19:40:45.758Z,19.60
2023-05-09T19:43:15.125Z,19.60
2023-05-09T19:45:42.718Z,19.60
2023-05-09T19:48:15.327Z,19.60
2023-05-09T19:50:43.350Z,19.60
2023-05-09T19:53:10.551Z,19.30
2023-05-09T19:55:37.718Z,19.20
2023-05-09T19:58:05.102Z,18.90
2023-05-09T20:00:32.777Z,18.80
2023-05-09T20:02:59.943Z,18.90
2023-05-09T20:05:27.485Z,19.00
2023-05-09T20:07:54.594Z,18.90
2023-05-09T20:10:21.748Z,18.90
2023-05-09T20:12:56.806Z,18.90
2023-05-09T20:15:25.732Z,19.00
2023-05-09T20:17:53.349Z,18.90
2023-05-09T20:20:22.792Z,18.80
2023-05-09T20:22:51.053Z,19.20
2023-05-09T20:25:18.263Z,19.30
2023-05-09T20:27:45.455Z,19.30
2023-05-09T20:30:13.227Z,19.20
2023-05-09T20:32:40.565Z,19.00
2023-05-09T20:35:07.995Z,19.00
2023-05-09T20:37:35.670Z,19.20
2023-05-09T20:40:06.512Z,19.30
2023-05-09T20:42:33.961Z,19.20
2023-05-09T20:45:01.588Z,19.10
2023-05-09T20:47:28.932Z,19.30
2023-05-09T20:49:58.194Z,19.30
2023-05-09T20:52:25.857Z,19.20
2023-05-09T20:54:53.030Z,18.90
2023-05-09T20:57:20.811Z,18.80
2023-05-09T20:59:47.902Z,18.70
2023-05-09T21:02:15.080Z,18.70
2023-05-09T21:04:42.496Z,18.70
2023-05-09T21:07:12.839Z,18.90
2023-05-09T21:09:40.024Z,19.10
2023-05-09T21:12:09.173Z,19.10
2023-05-09T21:14:37.682Z,19.00
2023-05-09T21:17:04.951Z,19.20
2023-05-09T21:19:32.079Z,19.30
2023-05-09T21:21:59.515Z,19.30
2023-05-09T21:24:27.269Z,19.30
2023-05-09T21:26:54.541Z,19.10
2023-05-09T21:29:21.699Z,18.80
2023-05-09T21:31:51.730Z,18.70
2023-05-09T21:34:19.640Z,18.60
2023-05-09T21:36:46.790Z,18.70
2023-05-09T21:39:13.915Z,18.50
2023-05-09T21:41:43.077Z,18.40
2023-05-09T21:44:12.164Z,18.40
2023-05-09T21:46:39.575Z,18.40
2023-05-09T21:49:18.324Z,18.40
2023-05-09T21:51:45.771Z,18.50
2023-05-09T21:54:13.265Z,18.60
2023-05-09T22:11:01.840Z,18.80
2023-05-09T22:13:29.276Z,19.10
2023-05-09T22:15:56.782Z,19.20
2023-05-09T22:18:24.330Z,19.20
2023-05-09T22:20:51.380Z,19.10
2023-05-09T22:23:44.066Z,18.70
2023-05-09T22:26:11.242Z,18.60
2023-05-09T22:28:38.463Z,18.60
2023-05-09T22:31:06.926Z,18.60
2023-05-09T22:33:34.672Z,18.40
2023-05-09T22:36:01.901Z,18.30
2023-05-09T22:38:29.037Z,18.20
2023-05-09T22:40:56.210Z,18.20
2023-05-09T22:43:24.247Z,18.30
2023-05-09T22:45:54.110Z,18.60
2023-05-09T22:48:21.322Z,18.50
2023-05-09T22:50:48.625Z,18.20
2023-05-09T22:53:15.832Z,18.30
2023-05-09T22:55:43.042Z,18.30
2023-05-09T22:58:10.666Z,18.50
2023-05-09T23:08:25.898Z,18.20
2023-05-09T23:10:53.061Z,18.20
2023-05-09T23:13:20.277Z,18.00
2023-05-09T23:15:48.597Z,17.90
2023-05-09T23:42:14.800Z,18.10
2023-05-09T23:44:41.903Z,18.00
2023-05-09T23:47:09.137Z,17.90
2023-05-09T23:49:36.226Z,17.60
2023-05-09T23:52:03.328Z,17.50
2023-05-09T23:54:30.432Z,17.40
2023-05-09T23:56:57.940Z,17.40
2023-05-09T23:59:25.034Z,17.80
